sensor_id;sensor_type;location;lat;lon;timestamp;temperature;humidity
24618;DHT22;12762;51.730;5.356;2023-08-08T00:01:59;15.70;77.20
24618;DHT22;12762;51.730;5.356;2023-08-08T00:04:31;15.70;77.20
24618;DHT22;12762;51.730;5.356;2023-08-08T00:06:58;15.70;77.10
24618;DHT22;12762;51.730;5.356;2023-08-08T00:09:24;15.70;77.00
24618;DHT22;12762;51.730;5.356;2023-08-08T00:11:51;15.70;77.00
24618;DHT22;12762;51.730;5.356;2023-08-08T00:14:18;15.70;77.00
24618;DHT22;12762;51.730;5.356;2023-08-08T00:16:45;15.70;77.10
24618;DHT22;12762;51.730;5.356;2023-08-08T00:19:12;15.70;77.10
24618;DHT22;12762;51.730;5.356;2023-08-08T00:21:38;15.70;77.10
24618;DHT22;12762;51.730;5.356;2023-08-08T00:24:05;15.70;77.20
24618;DHT22;12762;51.730;5.356;2023-08-08T00:26:32;15.70;78.00
24618;DHT22;12762;51.730;5.356;2023-08-08T00:28:59;15.70;77.30
24618;DHT22;12762;51.730;5.356;2023-08-08T00:31:26;15.60;77.20
24618;DHT22;12762;51.730;5.356;2023-08-08T00:33:53;15.60;77.20
24618;DHT22;12762;51.730;5.356;2023-08-08T00:36:20;15.60;77.30
24618;DHT22;12762;51.730;5.356;2023-08-08T00:38:47;15.60;77.30
24618;DHT22;12762;51.730;5.356;2023-08-08T00:41:15;15.60;77.40
24618;DHT22;12762;51.730;5.356;2023-08-08T00:43:45;15.60;77.50
24618;DHT22;12762;51.730;5.356;2023-08-08T00:46:20;15.60;77.50
24618;DHT22;12762;51.730;5.356;2023-08-08T00:48:51;15.60;77.50
24618;DHT22;12762;51.730;5.356;2023-08-08T00:51:21;15.70;77.70
24618;DHT22;12762;51.730;5.356;2023-08-08T00:53:51;15.70;77.60
24618;DHT22;12762;51.730;5.356;2023-08-08T00:56:18;15.70;77.60
24618;DHT22;12762;51.730;5.356;2023-08-08T00:58:45;15.70;77.60
24618;DHT22;12762;51.730;5.356;2023-08-08T01:01:17;15.70;77.70
24618;DHT22;12762;51.730;5.356;2023-08-08T01:03:52;15.70;77.80
24618;DHT22;12762;51.730;5.356;2023-08-08T01:06:25;15.70;77.90
24618;DHT22;12762;51.730;5.356;2023-08-08T01:09:24;15.70;77.90
24618;DHT22;12762;51.730;5.356;2023-08-08T01:11:55;15.70;77.90
24618;DHT22;12762;51.730;5.356;2023-08-08T01:14:24;15.70;77.90
24618;DHT22;12762;51.730;5.356;2023-08-08T01:16:54;15.70;78.00
24618;DHT22;12762;51.730;5.356;2023-08-08T01:19:27;15.70;78.20
24618;DHT22;12762;51.730;5.356;2023-08-08T01:21:57;15.70;78.20
24618;DHT22;12762;51.730;5.356;2023-08-08T01:24:26;15.70;78.30
24618;DHT22;12762;51.730;5.356;2023-08-08T01:26:56;15.70;78.50
24618;DHT22;12762;51.730;5.356;2023-08-08T01:29:23;15.70;79.40
24618;DHT22;12762;51.730;5.356;2023-08-08T01:31:49;15.70;78.70
24618;DHT22;12762;51.730;5.356;2023-08-08T01:34:16;15.70;78.90
24618;DHT22;12762;51.730;5.356;2023-08-08T01:36:51;15.70;79.10
24618;DHT22;12762;51.730;5.356;2023-08-08T01:39:25;15.70;79.30
24618;DHT22;12762;51.730;5.356;2023-08-08T01:41:54;15.70;79.50
24618;DHT22;12762;51.730;5.356;2023-08-08T01:44:25;15.70;79.60
24618;DHT22;12762;51.730;5.356;2023-08-08T01:46:53;15.70;79.80
24618;DHT22;12762;51.730;5.356;2023-08-08T01:49:20;15.70;80.00
24618;DHT22;12762;51.730;5.356;2023-08-08T01:51:47;15.70;80.10
24618;DHT22;12762;51.730;5.356;2023-08-08T01:54:15;15.60;80.20
24618;DHT22;12762;51.730;5.356;2023-08-08T01:56:41;15.60;80.40
24618;DHT22;12762;51.730;5.356;2023-08-08T01:59:08;15.60;80.60
24618;DHT22;12762;51.730;5.356;2023-08-08T02:01:35;15.60;80.80
24618;DHT22;12762;51.730;5.356;2023-08-08T02:04:02;15.60;80.90
24618;DHT22;12762;51.730;5.356;2023-08-08T02:06:32;15.60;81.00
24618;DHT22;12762;51.730;5.356;2023-08-08T02:08:59;15.60;81.10
24618;DHT22;12762;51.730;5.356;2023-08-08T02:11:26;15.50;81.20
24618;DHT22;12762;51.730;5.356;2023-08-08T02:13:58;15.50;81.40
24618;DHT22;12762;51.730;5.356;2023-08-08T02:16:25;15.50;81.50
24618;DHT22;12762;51.730;5.356;2023-08-08T02:18:52;15.50;81.70
24618;DHT22;12762;51.730;5.356;2023-08-08T02:21:19;15.50;81.80
24618;DHT22;12762;51.730;5.356;2023-08-08T02:23:48;15.50;81.80
24618;DHT22;12762;51.730;5.356;2023-08-08T02:26:15;15.40;81.80
24618;DHT22;12762;51.730;5.356;2023-08-08T02:28:46;15.40;81.90
24618;DHT22;12762;51.730;5.356;2023-08-08T02:31:49;15.40;82.10
24618;DHT22;12762;51.730;5.356;2023-08-08T02:34:16;15.30;82.00
24618;DHT22;12762;51.730;5.356;2023-08-08T02:36:43;15.30;82.20
24618;DHT22;12762;51.730;5.356;2023-08-08T02:39:10;15.30;82.40
24618;DHT22;12762;51.730;5.356;2023-08-08T02:41:37;15.30;82.50
24618;DHT22;12762;51.730;5.356;2023-08-08T02:44:03;15.30;83.40
24618;DHT22;12762;51.730;5.356;2023-08-08T02:46:33;15.30;82.70
24618;DHT22;12762;51.730;5.356;2023-08-08T02:49:00;15.30;82.80
24618;DHT22;12762;51.730;5.356;2023-08-08T02:51:27;15.30;82.90
24618;DHT22;12762;51.730;5.356;2023-08-08T02:53:54;15.30;83.00
24618;DHT22;12762;51.730;5.356;2023-08-08T02:56:21;15.30;83.00
24618;DHT22;12762;51.730;5.356;2023-08-08T02:58:48;15.30;83.10
24618;DHT22;12762;51.730;5.356;2023-08-08T03:01:15;15.30;83.20
24618;DHT22;12762;51.730;5.356;2023-08-08T03:03:42;15.30;83.30
24618;DHT22;12762;51.730;5.356;2023-08-08T03:06:12;15.30;83.40
24618;DHT22;12762;51.730;5.356;2023-08-08T03:08:39;15.30;83.40
24618;DHT22;12762;51.730;5.356;2023-08-08T03:11:06;15.30;83.50
24618;DHT22;12762;51.730;5.356;2023-08-08T03:13:33;15.30;83.60
24618;DHT22;12762;51.730;5.356;2023-08-08T03:16:00;15.30;83.70
24618;DHT22;12762;51.730;5.356;2023-08-08T03:18:27;15.20;83.70
24618;DHT22;12762;51.730;5.356;2023-08-08T03:20:54;15.20;83.80
24618;DHT22;12762;51.730;5.356;2023-08-08T03:23:21;15.20;83.90
24618;DHT22;12762;51.730;5.356;2023-08-08T03:25:53;15.20;84.10
24618;DHT22;12762;51.730;5.356;2023-08-08T03:28:19;15.20;84.30
24618;DHT22;12762;51.730;5.356;2023-08-08T03:30:46;15.10;84.30
24618;DHT22;12762;51.730;5.356;2023-08-08T03:33:13;15.10;84.30
24618;DHT22;12762;51.730;5.356;2023-08-08T03:35:40;15.10;84.50
24618;DHT22;12762;51.730;5.356;2023-08-08T03:38:10;15.10;84.70
24618;DHT22;12762;51.730;5.356;2023-08-08T03:40:37;15.00;84.80
24618;DHT22;12762;51.730;5.356;2023-08-08T03:43:04;15.00;84.80
24618;DHT22;12762;51.730;5.356;2023-08-08T03:45:30;15.00;84.90
24618;DHT22;12762;51.730;5.356;2023-08-08T03:47:57;15.00;85.10
24618;DHT22;12762;51.730;5.356;2023-08-08T03:50:24;15.00;85.20
24618;DHT22;12762;51.730;5.356;2023-08-08T03:52:51;15.00;85.30
24618;DHT22;12762;51.730;5.356;2023-08-08T03:55:17;15.00;85.50
24618;DHT22;12762;51.730;5.356;2023-08-08T03:57:44;15.00;85.50
24618;DHT22;12762;51.730;5.356;2023-08-08T04:00:11;14.90;85.60
24618;DHT22;12762;51.730;5.356;2023-08-08T04:02:38;14.90;85.70
24618;DHT22;12762;51.730;5.356;2023-08-08T04:05:05;14.90;85.80
24618;DHT22;12762;51.730;5.356;2023-08-08T04:07:33;14.90;85.90
24618;DHT22;12762;51.730;5.356;2023-08-08T04:10:00;14.90;86.00
24618;DHT22;12762;51.730;5.356;2023-08-08T04:12:27;14.90;86.10
24618;DHT22;12762;51.730;5.356;2023-08-08T04:14:54;14.90;86.20
24618;DHT22;12762;51.730;5.356;2023-08-08T04:17:20;14.80;86.10
24618;DHT22;12762;51.730;5.356;2023-08-08T04:19:47;14.80;86.30
24618;DHT22;12762;51.730;5.356;2023-08-08T04:22:14;14.80;86.40
24618;DHT22;12762;51.730;5.356;2023-08-08T04:24:44;14.80;86.50
24618;DHT22;12762;51.730;5.356;2023-08-08T04:27:10;14.80;86.50
24618;DHT22;12762;51.730;5.356;2023-08-08T04:29:37;14.80;86.70
24618;DHT22;12762;51.730;5.356;2023-08-08T04:32:05;14.80;86.80
24618;DHT22;12762;51.730;5.356;2023-08-08T04:34:34;14.80;86.90
24618;DHT22;12762;51.730;5.356;2023-08-08T04:37:04;14.80;87.00
24618;DHT22;12762;51.730;5.356;2023-08-08T04:39:31;14.90;87.20
24618;DHT22;12762;51.730;5.356;2023-08-08T04:42:00;14.90;87.20
24618;DHT22;12762;51.730;5.356;2023-08-08T04:44:27;14.90;87.30
24618;DHT22;12762;51.730;5.356;2023-08-08T04:46:54;14.90;87.40
24618;DHT22;12762;51.730;5.356;2023-08-08T04:49:23;14.90;87.40
24618;DHT22;12762;51.730;5.356;2023-08-08T04:51:50;15.00;87.50
24618;DHT22;12762;51.730;5.356;2023-08-08T04:54:17;15.00;87.60
24618;DHT22;12762;51.730;5.356;2023-08-08T04:56:43;15.00;87.60
24618;DHT22;12762;51.730;5.356;2023-08-08T04:59:13;15.00;87.80
24618;DHT22;12762;51.730;5.356;2023-08-08T05:01:39;15.00;87.80
24618;DHT22;12762;51.730;5.356;2023-08-08T05:04:06;15.10;87.90
24618;DHT22;12762;51.730;5.356;2023-08-08T05:06:34;15.10;87.90
24618;DHT22;12762;51.730;5.356;2023-08-08T05:09:01;15.10;88.00
24618;DHT22;12762;51.730;5.356;2023-08-08T05:11:27;15.10;88.00
24618;DHT22;12762;51.730;5.356;2023-08-08T05:13:57;15.10;88.00
24618;DHT22;12762;51.730;5.356;2023-08-08T05:16:23;15.10;88.00
24618;DHT22;12762;51.730;5.356;2023-08-08T05:18:53;15.10;88.00
24618;DHT22;12762;51.730;5.356;2023-08-08T05:21:21;15.10;88.00
24618;DHT22;12762;51.730;5.356;2023-08-08T05:23:48;15.20;88.20
24618;DHT22;12762;51.730;5.356;2023-08-08T05:26:15;15.20;88.20
24618;DHT22;12762;51.730;5.356;2023-08-08T05:28:42;15.30;88.40
24618;DHT22;12762;51.730;5.356;2023-08-08T05:31:09;15.30;88.30
24618;DHT22;12762;51.730;5.356;2023-08-08T05:33:36;15.30;88.20
24618;DHT22;12762;51.730;5.356;2023-08-08T05:36:03;15.40;88.20
24618;DHT22;12762;51.730;5.356;2023-08-08T05:38:30;15.40;88.20
24618;DHT22;12762;51.730;5.356;2023-08-08T05:40:57;15.40;88.20
24618;DHT22;12762;51.730;5.356;2023-08-08T05:43:24;15.50;88.20
24618;DHT22;12762;51.730;5.356;2023-08-08T05:45:51;15.50;88.20
24618;DHT22;12762;51.730;5.356;2023-08-08T05:48:18;15.50;88.00
24618;DHT22;12762;51.730;5.356;2023-08-08T05:50:45;15.50;88.00
24618;DHT22;12762;51.730;5.356;2023-08-08T05:53:15;15.50;88.00
24618;DHT22;12762;51.730;5.356;2023-08-08T05:55:42;15.50;87.90
24618;DHT22;12762;51.730;5.356;2023-08-08T05:58:09;15.50;87.90
24618;DHT22;12762;51.730;5.356;2023-08-08T06:00:36;15.60;88.00
24618;DHT22;12762;51.730;5.356;2023-08-08T06:03:04;15.60;88.00
24618;DHT22;12762;51.730;5.356;2023-08-08T06:05:31;15.70;88.00
24618;DHT22;12762;51.730;5.356;2023-08-08T06:07:58;15.70;87.90
24618;DHT22;12762;51.730;5.356;2023-08-08T06:10:25;15.80;87.90
24618;DHT22;12762;51.730;5.356;2023-08-08T06:12:53;15.80;87.80
24618;DHT22;12762;51.730;5.356;2023-08-08T06:15:20;15.80;87.60
24618;DHT22;12762;51.730;5.356;2023-08-08T06:17:47;15.90;87.50
24618;DHT22;12762;51.730;5.356;2023-08-08T06:20:14;15.90;87.30
24618;DHT22;12762;51.730;5.356;2023-08-08T06:22:45;16.00;87.30
24618;DHT22;12762;51.730;5.356;2023-08-08T06:25:12;16.00;87.30
24618;DHT22;12762;51.730;5.356;2023-08-08T06:27:39;16.10;87.30
24618;DHT22;12762;51.730;5.356;2023-08-08T06:30:07;16.10;87.10
24618;DHT22;12762;51.730;5.356;2023-08-08T06:32:35;16.20;87.00
24618;DHT22;12762;51.730;5.356;2023-08-08T06:35:02;16.30;86.80
24618;DHT22;12762;51.730;5.356;2023-08-08T06:37:29;16.30;86.70
24618;DHT22;12762;51.730;5.356;2023-08-08T06:39:55;16.40;86.70
24618;DHT22;12762;51.730;5.356;2023-08-08T06:42:22;16.40;86.50
24618;DHT22;12762;51.730;5.356;2023-08-08T06:44:49;16.50;86.30
24618;DHT22;12762;51.730;5.356;2023-08-08T06:47:16;16.60;86.30
24618;DHT22;12762;51.730;5.356;2023-08-08T06:49:43;16.60;86.10
24618;DHT22;12762;51.730;5.356;2023-08-08T06:52:09;16.70;85.90
24618;DHT22;12762;51.730;5.356;2023-08-08T06:54:36;16.70;85.60
24618;DHT22;12762;51.730;5.356;2023-08-08T06:57:03;16.80;85.60
24618;DHT22;12762;51.730;5.356;2023-08-08T06:59:30;16.90;85.40
24618;DHT22;12762;51.730;5.356;2023-08-08T07:01:57;16.90;85.20
24618;DHT22;12762;51.730;5.356;2023-08-08T07:04:24;17.00;85.00
24618;DHT22;12762;51.730;5.356;2023-08-08T07:06:51;17.00;84.80
24618;DHT22;12762;51.730;5.356;2023-08-08T07:09:18;17.10;84.60
24618;DHT22;12762;51.730;5.356;2023-08-08T07:11:45;17.20;84.70
24618;DHT22;12762;51.730;5.356;2023-08-08T07:14:12;17.40;84.40
24618;DHT22;12762;51.730;5.356;2023-08-08T07:16:39;17.50;84.00
24618;DHT22;12762;51.730;5.356;2023-08-08T07:19:06;17.70;83.70
24618;DHT22;12762;51.730;5.356;2023-08-08T07:21:35;17.80;83.30
24618;DHT22;12762;51.730;5.356;2023-08-08T07:24:03;17.90;82.80
24618;DHT22;12762;51.730;5.356;2023-08-08T07:26:30;18.00;82.80
24618;DHT22;12762;51.730;5.356;2023-08-08T07:28:56;18.10;82.40
24618;DHT22;12762;51.730;5.356;2023-08-08T07:31:23;18.20;81.90
24618;DHT22;12762;51.730;5.356;2023-08-08T07:33:50;18.40;81.80
24618;DHT22;12762;51.730;5.356;2023-08-08T07:36:17;18.40;81.20
24618;DHT22;12762;51.730;5.356;2023-08-08T07:38:44;18.50;80.90
24618;DHT22;12762;51.730;5.356;2023-08-08T07:41:10;18.50;80.80
24618;DHT22;12762;51.730;5.356;2023-08-08T07:43:37;18.70;81.30
24618;DHT22;12762;51.730;5.356;2023-08-08T07:46:04;19.20;81.70
24618;DHT22;12762;51.730;5.356;2023-08-08T07:48:31;19.90;81.00
24618;DHT22;12762;51.730;5.356;2023-08-08T07:51:00;20.50;79.40
24618;DHT22;12762;51.730;5.356;2023-08-08T07:53:27;21.10;78.50
24618;DHT22;12762;51.730;5.356;2023-08-08T07:55:54;21.60;76.80
24618;DHT22;12762;51.730;5.356;2023-08-08T07:58:21;21.80;75.40
24618;DHT22;12762;51.730;5.356;2023-08-08T08:00:49;22.00;74.60
24618;DHT22;12762;51.730;5.356;2023-08-08T08:03:19;22.20;74.10
24618;DHT22;12762;51.730;5.356;2023-08-08T08:05:46;22.30;73.90
24618;DHT22;12762;51.730;5.356;2023-08-08T08:08:13;22.60;73.70
24618;DHT22;12762;51.730;5.356;2023-08-08T08:10:40;22.80;72.50
24618;DHT22;12762;51.730;5.356;2023-08-08T08:13:06;22.70;71.70
24618;DHT22;12762;51.730;5.356;2023-08-08T08:15:34;22.50;71.30
24618;DHT22;12762;51.730;5.356;2023-08-08T08:18:01;22.50;71.60
24618;DHT22;12762;51.730;5.356;2023-08-08T08:20:28;22.40;70.90
24618;DHT22;12762;51.730;5.356;2023-08-08T08:22:58;22.20;71.20
24618;DHT22;12762;51.730;5.356;2023-08-08T08:25:25;22.10;71.20
24618;DHT22;12762;51.730;5.356;2023-08-08T08:27:51;22.00;71.70
24618;DHT22;12762;51.730;5.356;2023-08-08T08:30:18;22.00;71.70
24618;DHT22;12762;51.730;5.356;2023-08-08T08:32:46;21.90;70.90
24618;DHT22;12762;51.730;5.356;2023-08-08T08:35:13;21.60;70.80
24618;DHT22;12762;51.730;5.356;2023-08-08T08:37:40;21.40;71.20
24618;DHT22;12762;51.730;5.356;2023-08-08T08:40:07;21.30;71.90
24618;DHT22;12762;51.730;5.356;2023-08-08T08:42:35;21.40;71.90
24618;DHT22;12762;51.730;5.356;2023-08-08T08:45:04;21.50;71.50
24618;DHT22;12762;51.730;5.356;2023-08-08T08:47:36;21.60;70.70
24618;DHT22;12762;51.730;5.356;2023-08-08T08:50:04;21.50;69.90
24618;DHT22;12762;51.730;5.356;2023-08-08T08:52:31;21.50;70.40
24618;DHT22;12762;51.730;5.356;2023-08-08T08:54:58;21.50;70.10
24618;DHT22;12762;51.730;5.356;2023-08-08T08:57:25;21.60;70.50
24618;DHT22;12762;51.730;5.356;2023-08-08T08:59:52;21.50;69.20
24618;DHT22;12762;51.730;5.356;2023-08-08T09:02:19;21.40;69.60
24618;DHT22;12762;51.730;5.356;2023-08-08T09:04:46;21.50;70.10
24618;DHT22;12762;51.730;5.356;2023-08-08T09:07:14;21.60;70.10
24618;DHT22;12762;51.730;5.356;2023-08-08T09:09:45;21.80;69.40
24618;DHT22;12762;51.730;5.356;2023-08-08T09:12:12;21.80;68.70
24618;DHT22;12762;51.730;5.356;2023-08-08T09:14:40;21.80;68.30
24618;DHT22;12762;51.730;5.356;2023-08-08T09:17:11;21.80;68.40
24618;DHT22;12762;51.730;5.356;2023-08-08T09:19:45;22.00;67.70
24618;DHT22;12762;51.730;5.356;2023-08-08T09:22:16;22.30;68.00
24618;DHT22;12762;51.730;5.356;2023-08-08T09:24:42;22.50;66.80
24618;DHT22;12762;51.730;5.356;2023-08-08T09:27:09;22.50;65.90
24618;DHT22;12762;51.730;5.356;2023-08-08T09:29:37;22.50;65.90
24618;DHT22;12762;51.730;5.356;2023-08-08T09:32:07;22.40;65.10
24618;DHT22;12762;51.730;5.356;2023-08-08T09:34:35;22.40;65.30
24618;DHT22;12762;51.730;5.356;2023-08-08T09:37:02;22.40;65.00
24618;DHT22;12762;51.730;5.356;2023-08-08T09:39:29;22.30;64.90
24618;DHT22;12762;51.730;5.356;2023-08-08T09:41:56;22.30;65.40
24618;DHT22;12762;51.730;5.356;2023-08-08T09:44:24;22.40;65.60
24618;DHT22;12762;51.730;5.356;2023-08-08T09:46:53;22.60;65.30
24618;DHT22;12762;51.730;5.356;2023-08-08T09:49:21;22.70;65.20
24618;DHT22;12762;51.730;5.356;2023-08-08T09:51:49;22.80;64.20
24618;DHT22;12762;51.730;5.356;2023-08-08T09:54:16;22.70;63.30
24618;DHT22;12762;51.730;5.356;2023-08-08T09:56:44;22.50;63.60
24618;DHT22;12762;51.730;5.356;2023-08-08T09:59:11;22.40;64.70
24618;DHT22;12762;51.730;5.356;2023-08-08T10:01:41;22.40;64.30
24618;DHT22;12762;51.730;5.356;2023-08-08T10:04:11;22.30;64.20
24618;DHT22;12762;51.730;5.356;2023-08-08T10:06:41;22.20;63.90
24618;DHT22;12762;51.730;5.356;2023-08-08T10:09:08;22.10;63.80
24618;DHT22;12762;51.730;5.356;2023-08-08T10:11:36;22.10;63.40
24618;DHT22;12762;51.730;5.356;2023-08-08T10:14:03;22.10;63.20
24618;DHT22;12762;51.730;5.356;2023-08-08T10:16:34;22.10;62.80
24618;DHT22;12762;51.730;5.356;2023-08-08T10:19:03;22.00;62.90
24618;DHT22;12762;51.730;5.356;2023-08-08T10:21:54;22.10;63.50
24618;DHT22;12762;51.730;5.356;2023-08-08T10:24:21;22.30;63.80
24618;DHT22;12762;51.730;5.356;2023-08-08T10:26:59;22.40;63.50
24618;DHT22;12762;51.730;5.356;2023-08-08T10:29:30;22.50;62.80
24618;DHT22;12762;51.730;5.356;2023-08-08T10:32:02;22.50;62.90
24618;DHT22;12762;51.730;5.356;2023-08-08T10:34:43;22.50;62.60
24618;DHT22;12762;51.730;5.356;2023-08-08T10:37:14;22.50;62.50
24618;DHT22;12762;51.730;5.356;2023-08-08T10:39:51;22.40;62.40
24618;DHT22;12762;51.730;5.356;2023-08-08T10:42:20;22.30;62.80
24618;DHT22;12762;51.730;5.356;2023-08-08T10:44:55;22.40;63.10
24618;DHT22;12762;51.730;5.356;2023-08-08T10:47:35;22.40;62.80
24618;DHT22;12762;51.730;5.356;2023-08-08T10:50:07;22.40;62.90
24618;DHT22;12762;51.730;5.356;2023-08-08T10:52:55;22.40;62.90
24618;DHT22;12762;51.730;5.356;2023-08-08T10:58:06;22.40;63.10
24618;DHT22;12762;51.730;5.356;2023-08-08T11:00:38;22.50;63.50
24618;DHT22;12762;51.730;5.356;2023-08-08T11:03:06;22.60;63.10
24618;DHT22;12762;51.730;5.356;2023-08-08T11:05:36;22.60;62.90
24618;DHT22;12762;51.730;5.356;2023-08-08T11:08:05;22.40;62.70
24618;DHT22;12762;51.730;5.356;2023-08-08T11:10:39;22.20;62.80
24618;DHT22;12762;51.730;5.356;2023-08-08T11:13:07;22.10;63.10
24618;DHT22;12762;51.730;5.356;2023-08-08T11:15:36;22.10;63.50
24618;DHT22;12762;51.730;5.356;2023-08-08T11:18:10;22.30;63.30
24618;DHT22;12762;51.730;5.356;2023-08-08T11:20:39;22.30;62.60
24618;DHT22;12762;51.730;5.356;2023-08-08T11:23:06;22.10;62.10
24618;DHT22;12762;51.730;5.356;2023-08-08T11:25:40;22.00;62.80
24618;DHT22;12762;51.730;5.356;2023-08-08T11:28:08;21.90;62.60
24618;DHT22;12762;51.730;5.356;2023-08-08T11:30:37;21.90;62.90
24618;DHT22;12762;51.730;5.356;2023-08-08T11:33:07;22.10;62.60
24618;DHT22;12762;51.730;5.356;2023-08-08T11:35:37;22.40;62.60
24618;DHT22;12762;51.730;5.356;2023-08-08T11:38:04;22.70;62.00
24618;DHT22;12762;51.730;5.356;2023-08-08T11:40:32;22.90;60.40
24618;DHT22;12762;51.730;5.356;2023-08-08T11:43:00;23.10;60.20
24618;DHT22;12762;51.730;5.356;2023-08-08T11:45:27;23.20;59.50
24618;DHT22;12762;51.730;5.356;2023-08-08T11:47:55;23.30;59.40
24618;DHT22;12762;51.730;5.356;2023-08-08T11:50:24;23.40;59.30
24618;DHT22;12762;51.730;5.356;2023-08-08T11:52:53;23.50;58.60
24618;DHT22;12762;51.730;5.356;2023-08-08T11:55:21;23.60;58.20
24618;DHT22;12762;51.730;5.356;2023-08-08T11:57:50;23.60;58.40
24618;DHT22;12762;51.730;5.356;2023-08-08T12:00:17;23.60;58.00
24618;DHT22;12762;51.730;5.356;2023-08-08T12:02:45;23.70;58.00
24618;DHT22;12762;51.730;5.356;2023-08-08T12:05:14;23.70;57.80
24618;DHT22;12762;51.730;5.356;2023-08-08T12:07:44;23.80;59.00
24618;DHT22;12762;51.730;5.356;2023-08-08T12:10:20;23.90;58.40
24618;DHT22;12762;51.730;5.356;2023-08-08T12:12:55;23.90;57.40
24618;DHT22;12762;51.730;5.356;2023-08-08T12:15:23;23.90;57.50
24618;DHT22;12762;51.730;5.356;2023-08-08T12:17:50;23.90;57.40
24618;DHT22;12762;51.730;5.356;2023-08-08T12:20:17;24.10;57.80
24618;DHT22;12762;51.730;5.356;2023-08-08T12:22:45;24.40;57.90
24618;DHT22;12762;51.730;5.356;2023-08-08T12:25:14;24.50;57.00
24618;DHT22;12762;51.730;5.356;2023-08-08T12:27:41;24.50;56.80
24618;DHT22;12762;51.730;5.356;2023-08-08T12:30:08;24.50;56.70
24618;DHT22;12762;51.730;5.356;2023-08-08T12:32:35;24.50;56.20
24618;DHT22;12762;51.730;5.356;2023-08-08T12:35:01;24.60;55.90
24618;DHT22;12762;51.730;5.356;2023-08-08T12:37:29;24.60;56.20
24618;DHT22;12762;51.730;5.356;2023-08-08T12:39:56;24.80;55.90
24618;DHT22;12762;51.730;5.356;2023-08-08T12:42:23;24.80;55.60
24618;DHT22;12762;51.730;5.356;2023-08-08T12:44:50;24.80;55.20
24618;DHT22;12762;51.730;5.356;2023-08-08T12:47:20;24.60;55.00
24618;DHT22;12762;51.730;5.356;2023-08-08T12:49:48;24.50;54.90
24618;DHT22;12762;51.730;5.356;2023-08-08T12:52:15;24.50;55.20
24618;DHT22;12762;51.730;5.356;2023-08-08T12:54:45;24.50;55.40
24618;DHT22;12762;51.730;5.356;2023-08-08T12:57:11;24.50;55.40
24618;DHT22;12762;51.730;5.356;2023-08-08T12:59:41;24.60;54.90
24618;DHT22;12762;51.730;5.356;2023-08-08T13:02:08;24.70;54.50
24618;DHT22;12762;51.730;5.356;2023-08-08T13:04:36;24.70;55.00
24618;DHT22;12762;51.730;5.356;2023-08-08T13:07:03;24.70;54.80
24618;DHT22;12762;51.730;5.356;2023-08-08T13:09:30;24.80;54.90
24618;DHT22;12762;51.730;5.356;2023-08-08T13:11:57;24.80;53.90
24618;DHT22;12762;51.730;5.356;2023-08-08T13:14:24;24.60;54.30
24618;DHT22;12762;51.730;5.356;2023-08-08T13:16:51;24.50;54.40
24618;DHT22;12762;51.730;5.356;2023-08-08T13:19:19;24.50;54.00
24618;DHT22;12762;51.730;5.356;2023-08-08T13:21:47;24.40;53.90
24618;DHT22;12762;51.730;5.356;2023-08-08T13:24:14;24.30;54.00
24618;DHT22;12762;51.730;5.356;2023-08-08T13:26:41;24.40;54.00
24618;DHT22;12762;51.730;5.356;2023-08-08T13:29:08;24.50;54.50
24618;DHT22;12762;51.730;5.356;2023-08-08T13:31:35;24.60;54.90
24618;DHT22;12762;51.730;5.356;2023-08-08T13:34:02;24.70;53.80
24618;DHT22;12762;51.730;5.356;2023-08-08T13:36:28;24.80;53.80
24618;DHT22;12762;51.730;5.356;2023-08-08T13:38:57;24.80;53.40
24618;DHT22;12762;51.730;5.356;2023-08-08T13:41:24;24.80;53.60
24618;DHT22;12762;51.730;5.356;2023-08-08T13:43:52;24.80;53.70
24618;DHT22;12762;51.730;5.356;2023-08-08T13:46:18;24.90;52.90
24618;DHT22;12762;51.730;5.356;2023-08-08T13:48:45;24.90;52.70
24618;DHT22;12762;51.730;5.356;2023-08-08T13:51:15;24.90;52.40
24618;DHT22;12762;51.730;5.356;2023-08-08T13:53:42;24.90;52.00
24618;DHT22;12762;51.730;5.356;2023-08-08T13:56:09;24.80;51.30
24618;DHT22;12762;51.730;5.356;2023-08-08T13:58:37;24.70;51.20
24618;DHT22;12762;51.730;5.356;2023-08-08T14:01:04;24.60;51.80
24618;DHT22;12762;51.730;5.356;2023-08-08T14:03:30;24.70;51.80
24618;DHT22;12762;51.730;5.356;2023-08-08T14:05:58;24.60;51.70
24618;DHT22;12762;51.730;5.356;2023-08-08T14:08:24;24.70;52.30
24618;DHT22;12762;51.730;5.356;2023-08-08T14:10:51;24.60;51.70
24618;DHT22;12762;51.730;5.356;2023-08-08T14:13:18;24.60;52.30
24618;DHT22;12762;51.730;5.356;2023-08-08T14:15:49;24.60;52.30
24618;DHT22;12762;51.730;5.356;2023-08-08T14:18:16;24.80;52.30
24618;DHT22;12762;51.730;5.356;2023-08-08T14:20:43;24.80;52.40
24618;DHT22;12762;51.730;5.356;2023-08-08T14:23:10;24.90;52.20
24618;DHT22;12762;51.730;5.356;2023-08-08T14:25:36;24.90;52.30
24618;DHT22;12762;51.730;5.356;2023-08-08T14:28:03;25.00;52.80
24618;DHT22;12762;51.730;5.356;2023-08-08T14:30:30;25.10;52.50
24618;DHT22;12762;51.730;5.356;2023-08-08T14:32:57;25.00;52.40
24618;DHT22;12762;51.730;5.356;2023-08-08T14:35:24;25.00;52.50
24618;DHT22;12762;51.730;5.356;2023-08-08T14:37:51;25.00;52.90
24618;DHT22;12762;51.730;5.356;2023-08-08T14:40:18;25.10;52.60
24618;DHT22;12762;51.730;5.356;2023-08-08T14:42:45;25.00;52.70
24618;DHT22;12762;51.730;5.356;2023-08-08T14:45:11;24.90;52.70
24618;DHT22;12762;51.730;5.356;2023-08-08T14:47:38;24.70;52.50
24618;DHT22;12762;51.730;5.356;2023-08-08T14:50:06;24.50;53.00
24618;DHT22;12762;51.730;5.356;2023-08-08T14:52:33;24.30;53.40
24618;DHT22;12762;51.730;5.356;2023-08-08T14:55:01;24.40;53.70
24618;DHT22;12762;51.730;5.356;2023-08-08T14:57:28;24.40;53.60
24618;DHT22;12762;51.730;5.356;2023-08-08T14:59:55;24.30;53.60
24618;DHT22;12762;51.730;5.356;2023-08-08T15:02:21;24.20;54.00
24618;DHT22;12762;51.730;5.356;2023-08-08T15:04:48;24.30;53.90
24618;DHT22;12762;51.730;5.356;2023-08-08T15:07:16;24.30;53.60
24618;DHT22;12762;51.730;5.356;2023-08-08T15:09:43;24.20;53.60
24618;DHT22;12762;51.730;5.356;2023-08-08T15:12:09;24.10;53.40
24618;DHT22;12762;51.730;5.356;2023-08-08T15:14:36;23.90;53.40
24618;DHT22;12762;51.730;5.356;2023-08-08T15:17:03;23.80;53.70
24618;DHT22;12762;51.730;5.356;2023-08-08T15:19:32;23.60;53.70
24618;DHT22;12762;51.730;5.356;2023-08-08T15:21:59;23.50;54.40
24618;DHT22;12762;51.730;5.356;2023-08-08T15:24:34;23.40;54.70
24618;DHT22;12762;51.730;5.356;2023-08-08T15:27:03;23.30;55.00
24618;DHT22;12762;51.730;5.356;2023-08-08T15:29:31;23.30;55.00
24618;DHT22;12762;51.730;5.356;2023-08-08T15:32:00;23.30;55.00
24618;DHT22;12762;51.730;5.356;2023-08-08T15:34:27;23.20;55.20
24618;DHT22;12762;51.730;5.356;2023-08-08T15:36:54;23.10;55.40
24618;DHT22;12762;51.730;5.356;2023-08-08T15:39:25;23.10;55.50